Tasman Crusader — A8NQ7 — position and weather

sailwx.info

Track history (hours):
 
Tides and Currents Weather Stations Pressure Air Temp Water Temp Dewpoint Dewpoint Depression Visibility Wind Speed Wind Dir Waves Ship Positions

Tasman Crusader

Last reported at 2015-Jul-05 01:13 UTC. Time now 2015-Jul-05 06:10 UTC.
Position N 31°05' W 118°18'.

Length 186 m; draft 8.8 m.

Type: Ship (hazmat cat D). MMSI: 636091434.

Date/timePositionNaut miles runAvg speedWind from/ knotsBaromVisibWave heightAir tempDewpointWater temp
2015-Jul-05 01:13N 31°05' W 118°18'1420.4
2015-Jul-05 00:33N 31°16' W 118°27'2020.1
2015-Jul-04 23:33N 31°33' W 118°41'2020.0
2015-Jul-04 22:33N 31°49' W 118°55'2220.3
2015-Jul-04 21:30N 32°06' W 119°10'1920.4
2015-Jul-04 20:33N 32°22' W 119°23'2020.3
2015-Jul-04 19:33N 32°38' W 119°37'2020.5
2015-Jul-04 18:33N 32°54' W 119°52'2020.4
2015-Jul-04 17:33N 33°11' W 120°06'2020.4
2015-Jul-04 16:33N 33°27' W 120°20'2020.1
2015-Jul-04 15:33N 33°44' W 120°34'2120.2
2015-Jul-04 14:31N 34°00' W 120°50'4019.9
2015-Jul-04 12:30N 34°34' W 121°16'1919.7
2015-Jul-04 11:33N 34°51' W 121°26'2020.1
2015-Jul-04 10:33N 35°09' W 121°35'2019.8
2015-Jul-04 09:33N 35°27' W 121°46'2120.8
2015-Jul-04 08:33N 35°46' W 121°56'2020.3
2015-Jul-04 07:33N 36°05' W 122°07'2020.5
2015-Jul-04 06:33N 36°23' W 122°17'2019.9
2015-Jul-04 05:33N 36°42' W 122°27'2120.5
2015-Jul-04 04:33N 37°00' W 122°38'1918.8
2015-Jul-04 03:33N 37°18' W 122°44'10 9.7
2015-Jul-04 02:34N 37°28' W 122°44'10 9.7
2015-Jul-04 01:34N 37°38' W 122°43'9 9.0
2015-Jul-04 00:34N 37°46' W 122°38'1312.8
2015-Jul-03 23:33N 37°48' W 122°22'2 2.4
2015-Jul-03 22:32N 37°49' W 122°19'0 0.0
2015-Jul-03 21:32N 37°49' W 122°19'0 0.0
2015-Jul-03 20:32N 37°49' W 122°19'0 0.0
2015-Jul-03 19:32N 37°49' W 122°19'0 0.0
2015-Jul-03 18:32N 37°49' W 122°19'0 0.0
2015-Jul-03 17:32N 37°49' W 122°19'0 0.0
2015-Jul-03 16:29N 37°49' W 122°19'0 0.0
2015-Jul-03 15:32N 37°49' W 122°19'0 0.0
2015-Jul-03 14:32N 37°49' W 122°19'0 0.0
2015-Jul-03 13:32N 37°49' W 122°19'3 3.0
2015-Jul-03 12:33N 37°47' W 122°22'5 5.0
2015-Jul-03 11:33N 37°43' W 122°20'0 0.0
2015-Jul-03 10:33N 37°43' W 122°20'0 0.1
2015-Jul-03 09:33N 37°43' W 122°20'0 0.1
2015-Jul-03 08:33N 37°43' W 122°20'0 0.1
2015-Jul-03 07:33N 37°43' W 122°20'0 0.1
2015-Jul-03 06:33N 37°42' W 122°20'0 0.0
2015-Jul-03 05:33N 37°42' W 122°20'0 0.0
2015-Jul-03 04:33N 37°42' W 122°20'0 0.0
2015-Jul-03 03:33N 37°43' W 122°20'0 0.0
2015-Jul-03 02:33N 37°43' W 122°20'0 0.1
2015-Jul-03 01:33N 37°43' W 122°20'0 0.0
2015-Jul-03 00:33N 37°43' W 122°20'0 0.0
2015-Jul-02 23:33N 37°43' W 122°20'0 0.1
2015-Jul-02 22:33N 37°43' W 122°20'0 0.1
2015-Jul-02 21:33N 37°43' W 122°20'0 0.0
2015-Jul-02 20:33N 37°43' W 122°20'0 0.1
2015-Jul-02 19:33N 37°42' W 122°20'0 0.0
2015-Jul-02 18:33N 37°42' W 122°20'0 0.0
2015-Jul-02 17:33N 37°42' W 122°20'0 0.0
2015-Jul-02 16:33N 37°42' W 122°20'0 0.1
2015-Jul-02 15:33N 37°43' W 122°20'0 0.2
2015-Jul-02 14:33N 37°43' W 122°20'0 0.0
2015-Jul-02 13:33N 37°43' W 122°20'0 0.0
2015-Jul-02 12:33N 37°43' W 122°20'0 0.0
2015-Jul-02 11:33N 37°43' W 122°20'0 0.0
2015-Jul-02 10:33N 37°43' W 122°20'0 0.0
2015-Jul-02 09:33N 37°43' W 122°20'0 0.1
2015-Jul-02 08:33N 37°43' W 122°20'0 0.2
2015-Jul-02 07:33N 37°42' W 122°20'0 0.1
2015-Jul-02 06:33N 37°42' W 122°20'0 0.0
2015-Jul-02 05:33N 37°42' W 122°20'0 0.0
2015-Jul-02 04:33N 37°42' W 122°20'0 0.0
2015-Jul-02 03:33N 37°42' W 122°20'0 0.1
2015-Jul-02 02:33N 37°43' W 122°20'0 0.1
2015-Jul-02 01:33N 37°42' W 122°20'0 0.2
2015-Jul-02 00:33N 37°43' W 122°20'0 0.0
2015-Jul-01 23:33N 37°43' W 122°20'0 0.0
2015-Jul-01 22:33N 37°43' W 122°20'0 0.2
2015-Jul-01 21:33N 37°43' W 122°20'0 0.1
2015-Jul-01 20:33N 37°42' W 122°20'0 0.0
2015-Jul-01 19:33N 37°42' W 122°20'0 0.0
2015-Jul-01 18:33N 37°42' W 122°20'0 0.0
2015-Jul-01 17:33N 37°42' W 122°20'0 0.1
2015-Jul-01 16:33N 37°42' W 122°20'0 0.0
2015-Jul-01 15:33N 37°42' W 122°20'0 0.1
2015-Jul-01 14:33N 37°43' W 122°20'0 0.2
2015-Jul-01 13:33N 37°43' W 122°20'0 0.0
2015-Jul-01 12:33N 37°43' W 122°20'0 0.0
2015-Jul-01 11:33N 37°43' W 122°20'0 0.0
2015-Jul-01 10:33N 37°43' W 122°20'0 0.0
2015-Jul-01 09:33N 37°43' W 122°20'0 0.0
2015-Jul-01 08:33N 37°43' W 122°20'0 0.2
2015-Jul-01 07:33N 37°43' W 122°20'0 0.1
2015-Jul-01 06:33N 37°42' W 122°20'0 0.0
2015-Jul-01 05:33N 37°42' W 122°20'0 0.0
2015-Jul-01 04:33N 37°42' W 122°20'0 0.0
2015-Jul-01 03:33N 37°42' W 122°20'0 0.0
2015-Jul-01 02:33N 37°42' W 122°20'0 0.1
2015-Jul-01 01:33N 37°43' W 122°20'0 0.1
2015-Jul-01 00:33N 37°43' W 122°20'0 0.2
2015-Jun-30 23:33N 37°43' W 122°20'0 0.0
2015-Jun-30 22:33N 37°43' W 122°20'0 0.0
2015-Jun-30 21:33N 37°43' W 122°20'0 0.2
2015-Jun-30 20:33N 37°43' W 122°20'0 0.1
2015-Jun-30 19:33N 37°43' W 122°20'0 0.1
2015-Jun-30 18:33N 37°42' W 122°20'0 0.0
2015-Jun-30 17:33N 37°42' W 122°20'0 0.0
2015-Jun-30 16:33N 37°42' W 122°20'0 0.0
2015-Jun-30 15:33N 37°42' W 122°20'0 0.0
2015-Jun-30 14:33N 37°43' W 122°20'0 0.1
2015-Jun-30 13:33N 37°43' W 122°20'0 0.2
2015-Jun-30 12:33N 37°43' W 122°20'0 0.0
2015-Jun-30 11:33N 37°43' W 122°20'0 0.0
2015-Jun-30 10:33N 37°43' W 122°20'0 0.0
2015-Jun-30 09:33N 37°43' W 122°20'0 0.0
2015-Jun-30 08:33N 37°43' W 122°20'0 0.0
2015-Jun-30 07:33N 37°43' W 122°20'0 0.1
2015-Jun-30 06:33N 37°43' W 122°20'0 0.0
2015-Jun-30 05:33N 37°43' W 122°20'0 0.0
2015-Jun-30 04:33N 37°43' W 122°20'0 0.0
2015-Jun-30 03:33N 37°42' W 122°20'0 0.0
2015-Jun-30 02:33N 37°43' W 122°20'0 0.0
2015-Jun-30 01:33N 37°43' W 122°20'0 0.1
2015-Jun-30 00:33N 37°43' W 122°20'0 0.0
2015-Jun-29 23:33N 37°43' W 122°20'5 4.9
2015-Jun-29 22:33N 37°47' W 122°22'1413.6
2015-Jun-29 21:33N 37°45' W 122°39'8 8.1
2015-Jun-29 20:33N 37°37' W 122°40'7 7.4
2015-Jun-29 19:33N 37°30' W 122°40'9 8.6
2015-Jun-29 18:33N 37°21' W 122°40'8 8.2
2015-Jun-29 17:33N 37°13' W 122°37'9 9.0
2015-Jun-29 16:33N 37°05' W 122°32'7 7.4
2015-Jun-29 15:33N 36°59' W 122°28'9 8.7
2015-Jun-29 14:33N 36°51' W 122°23'8 8.4
2015-Jun-29 13:33N 36°43' W 122°19'8 8.3
2015-Jun-29 12:33N 36°36' W 122°13'9 8.6
2015-Jun-29 11:33N 36°29' W 122°09'9 8.6
2015-Jun-29 10:33N 36°21' W 122°04'9 8.9
2015-Jun-29 09:33N 36°13' W 121°59'9 8.6
2015-Jun-29 08:33N 36°05' W 121°54'8 8.1
2015-Jun-29 07:33N 35°58' W 121°49'8 8.0
2015-Jun-29 06:33N 35°51' W 121°44'8 7.9
2015-Jun-29 05:33N 35°44' W 121°40'8 8.2
2015-Jun-29 04:33N 35°37' W 121°35'9 8.6
2015-Jun-29 03:33N 35°29' W 121°30'9 8.8
2015-Jun-29 02:33N 35°21' W 121°26'9 8.9
2015-Jun-29 01:33N 35°13' W 121°21'8 8.5
2015-Jun-29 00:33N 35°06' W 121°17'9 8.9
2015-Jun-28 23:33N 34°58' W 121°12'9 9.0
2015-Jun-28 22:33N 34°50' W 121°06'9 8.8
2015-Jun-28 21:33N 34°42' W 121°02'9 8.9
2015-Jun-28 20:31N 34°34' W 120°56'18 8.6
2015-Jun-28 18:24N 34°23' W 120°38'73 9.0
2015-Jun-28 10:16N 34°03' W 119°13'6 8.8
2015-Jun-28 09:33N 34°00' W 119°07'9 9.1
2015-Jun-28 08:33N 33°56' W 118°57'9 9.4
2015-Jun-28 07:33N 33°51' W 118°48'9 9.2
2015-Jun-28 06:33N 33°46' W 118°38'9 9.0
2015-Jun-28 05:31N 33°42' W 118°28'9 9.3
2015-Jun-28 04:33N 33°38' W 118°18'8 8.0
2015-Jun-28 03:33N 33°43' W 118°11'4 3.5
2015-Jun-28 02:33N 33°46' W 118°14'0 0.0
2015-Jun-28 01:33N 33°46' W 118°14'0 0.0
2015-Jun-28 00:33N 33°46' W 118°14'0 0.0
2015-Jun-27 23:33N 33°46' W 118°14'0 0.0
2015-Jun-27 22:33N 33°46' W 118°14'0 0.0
2015-Jun-27 21:33N 33°46' W 118°14'0 0.0
2015-Jun-27 20:33N 33°46' W 118°14'0 0.0
2015-Jun-27 19:33N 33°46' W 118°14'0 0.0
2015-Jun-27 18:33N 33°46' W 118°14'0 0.0
2015-Jun-27 17:33N 33°46' W 118°14'0 0.0
2015-Jun-27 16:30N 33°46' W 118°14'0 0.0
2015-Jun-27 15:33N 33°46' W 118°14'0 0.0
2015-Jun-27 14:33N 33°46' W 118°14'0 0.0
2015-Jun-27 13:33N 33°46' W 118°14'0 0.0
2015-Jun-27 12:33N 33°46' W 118°14'0 0.0
2015-Jun-27 11:33N 33°46' W 118°14'0 0.0
2015-Jun-27 10:33N 33°46' W 118°14'0 0.0
2015-Jun-27 09:33N 33°46' W 118°14'0 0.0
2015-Jun-27 08:33N 33°46' W 118°14'0 0.0
2015-Jun-27 07:33N 33°46' W 118°14'0 0.0
2015-Jun-27 06:33N 33°46' W 118°14'0 0.0
2015-Jun-27 05:33N 33°46' W 118°14'0 0.0
2015-Jun-27 04:33N 33°46' W 118°14'0 0.0
2015-Jun-27 03:33N 33°46' W 118°14'0 0.0
2015-Jun-27 02:33N 33°46' W 118°14'0 0.0
2015-Jun-27 01:33N 33°46' W 118°14'0 0.0
2015-Jun-27 00:33N 33°46' W 118°14'0 0.0
2015-Jun-26 23:33N 33°46' W 118°14'1 0.9
2015-Jun-26 22:33N 33°46' W 118°13'6 6.2
2015-Jun-26 21:33N 33°39' W 118°12'7 6.6
2015-Jun-26 20:33N 33°36' W 118°19'7 6.9
2015-Jun-26 19:33N 33°38' W 118°27'7 6.9
2015-Jun-26 18:33N 33°42' W 118°34'7 7.0
2015-Jun-26 17:33N 33°45' W 118°41'7 7.0
2015-Jun-26 16:33N 33°49' W 118°48'7 7.1
2015-Jun-26 15:33N 33°53' W 118°55'7 7.1
2015-Jun-26 14:33N 33°56' W 119°03'7 7.1
2015-Jun-26 13:33N 33°60' W 119°10'6 6.2
2015-Jun-26 12:33N 34°04' W 119°16'6 5.0
2015-Jun-26 11:25N 34°09' W 119°12'0 0.0
2015-Jun-26 09:31N 34°09' W 119°12'0 0.0
2015-Jun-26 07:19N 34°09' W 119°12'0 0.0
2015-Jun-26 06:19N 34°09' W 119°12'0 0.0
2015-Jun-26 04:31N 34°09' W 119°12'0 0.0
2015-Jun-26 03:31N 34°09' W 119°12'0 0.0
2015-Jun-26 02:28N 34°09' W 119°12'0 0.0
2015-Jun-26 01:31N 34°09' W 119°12'0 0.0
2015-Jun-26 00:31N 34°09' W 119°12'0 0.0
2015-Jun-25 23:31N 34°09' W 119°12'0 0.0
2015-Jun-25 22:31N 34°09' W 119°12'0 0.0
2015-Jun-25 21:25N 34°09' W 119°12'0 0.0
2015-Jun-25 03:28N 34°09' W 119°12'  
Track history (hours):
 
Tides and Currents Weather Stations Pressure Air Temp Water Temp Dewpoint Dewpoint Depression Visibility Wind Speed Wind Dir Waves Ship Positions

Tasman Crusader

Last reported at 2015-Jul-05 01:13 UTC. Time now 2015-Jul-05 06:10 UTC.
Position N 31°05' W 118°18'.

Length 186 m; draft 8.8 m.

Type: Ship (hazmat cat D). MMSI: 636091434.

Date/timePositionNaut miles runAvg speedWind from/ knotsBaromVisibWave heightAir tempDewpointWater temp
2015-Jul-05 01:13N 31°05' W 118°18'1420.4
2015-Jul-05 00:33N 31°16' W 118°27'2020.1
2015-Jul-04 23:33N 31°33' W 118°41'2020.0
2015-Jul-04 22:33N 31°49' W 118°55'2220.3
2015-Jul-04 21:30N 32°06' W 119°10'1920.4
2015-Jul-04 20:33N 32°22' W 119°23'2020.3
2015-Jul-04 19:33N 32°38' W 119°37'2020.5
2015-Jul-04 18:33N 32°54' W 119°52'2020.4
2015-Jul-04 17:33N 33°11' W 120°06'2020.4
2015-Jul-04 16:33N 33°27' W 120°20'2020.1
2015-Jul-04 15:33N 33°44' W 120°34'2120.2
2015-Jul-04 14:31N 34°00' W 120°50'4019.9
2015-Jul-04 12:30N 34°34' W 121°16'1919.7
2015-Jul-04 11:33N 34°51' W 121°26'2020.1
2015-Jul-04 10:33N 35°09' W 121°35'2019.8
2015-Jul-04 09:33N 35°27' W 121°46'2120.8
2015-Jul-04 08:33N 35°46' W 121°56'2020.3
2015-Jul-04 07:33N 36°05' W 122°07'2020.5
2015-Jul-04 06:33N 36°23' W 122°17'2019.9
2015-Jul-04 05:33N 36°42' W 122°27'2120.5
2015-Jul-04 04:33N 37°00' W 122°38'1918.8
2015-Jul-04 03:33N 37°18' W 122°44'10 9.7
2015-Jul-04 02:34N 37°28' W 122°44'10 9.7
2015-Jul-04 01:34N 37°38' W 122°43'9 9.0
2015-Jul-04 00:34N 37°46' W 122°38'1312.8
2015-Jul-03 23:33N 37°48' W 122°22'2 2.4
2015-Jul-03 22:32N 37°49' W 122°19'0 0.0
2015-Jul-03 21:32N 37°49' W 122°19'0 0.0
2015-Jul-03 20:32N 37°49' W 122°19'0 0.0
2015-Jul-03 19:32N 37°49' W 122°19'0 0.0
2015-Jul-03 18:32N 37°49' W 122°19'0 0.0
2015-Jul-03 17:32N 37°49' W 122°19'0 0.0
2015-Jul-03 16:29N 37°49' W 122°19'0 0.0
2015-Jul-03 15:32N 37°49' W 122°19'0 0.0
2015-Jul-03 14:32N 37°49' W 122°19'0 0.0
2015-Jul-03 13:32N 37°49' W 122°19'3 3.0
2015-Jul-03 12:33N 37°47' W 122°22'5 5.0
2015-Jul-03 11:33N 37°43' W 122°20'0 0.0
2015-Jul-03 10:33N 37°43' W 122°20'0 0.1
2015-Jul-03 09:33N 37°43' W 122°20'0 0.1
2015-Jul-03 08:33N 37°43' W 122°20'0 0.1
2015-Jul-03 07:33N 37°43' W 122°20'0 0.1
2015-Jul-03 06:33N 37°42' W 122°20'0 0.0
2015-Jul-03 05:33N 37°42' W 122°20'0 0.0
2015-Jul-03 04:33N 37°42' W 122°20'0 0.0
2015-Jul-03 03:33N 37°43' W 122°20'0 0.0
2015-Jul-03 02:33N 37°43' W 122°20'0 0.1
2015-Jul-03 01:33N 37°43' W 122°20'0 0.0
2015-Jul-03 00:33N 37°43' W 122°20'0 0.0
2015-Jul-02 23:33N 37°43' W 122°20'0 0.1
2015-Jul-02 22:33N 37°43' W 122°20'0 0.1
2015-Jul-02 21:33N 37°43' W 122°20'0 0.0
2015-Jul-02 20:33N 37°43' W 122°20'0 0.1
2015-Jul-02 19:33N 37°42' W 122°20'0 0.0
2015-Jul-02 18:33N 37°42' W 122°20'0 0.0
2015-Jul-02 17:33N 37°42' W 122°20'0 0.0
2015-Jul-02 16:33N 37°42' W 122°20'0 0.1
2015-Jul-02 15:33N 37°43' W 122°20'0 0.2
2015-Jul-02 14:33N 37°43' W 122°20'0 0.0
2015-Jul-02 13:33N 37°43' W 122°20'0 0.0
2015-Jul-02 12:33N 37°43' W 122°20'0 0.0
2015-Jul-02 11:33N 37°43' W 122°20'0 0.0
2015-Jul-02 10:33N 37°43' W 122°20'0 0.0
2015-Jul-02 09:33N 37°43' W 122°20'0 0.1
2015-Jul-02 08:33N 37°43' W 122°20'0 0.2
2015-Jul-02 07:33N 37°42' W 122°20'0 0.1
2015-Jul-02 06:33N 37°42' W 122°20'0 0.0
2015-Jul-02 05:33N 37°42' W 122°20'0 0.0
2015-Jul-02 04:33N 37°42' W 122°20'0 0.0
2015-Jul-02 03:33N 37°42' W 122°20'0 0.1
2015-Jul-02 02:33N 37°43' W 122°20'0 0.1
2015-Jul-02 01:33N 37°42' W 122°20'0 0.2
2015-Jul-02 00:33N 37°43' W 122°20'0 0.0
2015-Jul-01 23:33N 37°43' W 122°20'0 0.0
2015-Jul-01 22:33N 37°43' W 122°20'0 0.2
2015-Jul-01 21:33N 37°43' W 122°20'0 0.1
2015-Jul-01 20:33N 37°42' W 122°20'0 0.0
2015-Jul-01 19:33N 37°42' W 122°20'0 0.0
2015-Jul-01 18:33N 37°42' W 122°20'0 0.0
2015-Jul-01 17:33N 37°42' W 122°20'0 0.1
2015-Jul-01 16:33N 37°42' W 122°20'0 0.0
2015-Jul-01 15:33N 37°42' W 122°20'0 0.1
2015-Jul-01 14:33N 37°43' W 122°20'0 0.2
2015-Jul-01 13:33N 37°43' W 122°20'0 0.0
2015-Jul-01 12:33N 37°43' W 122°20'0 0.0
2015-Jul-01 11:33N 37°43' W 122°20'0 0.0
2015-Jul-01 10:33N 37°43' W 122°20'0 0.0
2015-Jul-01 09:33N 37°43' W 122°20'0 0.0
2015-Jul-01 08:33N 37°43' W 122°20'0 0.2
2015-Jul-01 07:33N 37°43' W 122°20'0 0.1
2015-Jul-01 06:33N 37°42' W 122°20'0 0.0
2015-Jul-01 05:33N 37°42' W 122°20'0 0.0
2015-Jul-01 04:33N 37°42' W 122°20'0 0.0
2015-Jul-01 03:33N 37°42' W 122°20'0 0.0
2015-Jul-01 02:33N 37°42' W 122°20'0 0.1
2015-Jul-01 01:33N 37°43' W 122°20'0 0.1
2015-Jul-01 00:33N 37°43' W 122°20'0 0.2
2015-Jun-30 23:33N 37°43' W 122°20'0 0.0
2015-Jun-30 22:33N 37°43' W 122°20'0 0.0
2015-Jun-30 21:33N 37°43' W 122°20'0 0.2
2015-Jun-30 20:33N 37°43' W 122°20'0 0.1
2015-Jun-30 19:33N 37°43' W 122°20'0 0.1
2015-Jun-30 18:33N 37°42' W 122°20'0 0.0
2015-Jun-30 17:33N 37°42' W 122°20'0 0.0
2015-Jun-30 16:33N 37°42' W 122°20'0 0.0
2015-Jun-30 15:33N 37°42' W 122°20'0 0.0
2015-Jun-30 14:33N 37°43' W 122°20'0 0.1
2015-Jun-30 13:33N 37°43' W 122°20'0 0.2
2015-Jun-30 12:33N 37°43' W 122°20'0 0.0
2015-Jun-30 11:33N 37°43' W 122°20'0 0.0
2015-Jun-30 10:33N 37°43' W 122°20'0 0.0
2015-Jun-30 09:33N 37°43' W 122°20'0 0.0
2015-Jun-30 08:33N 37°43' W 122°20'0 0.0
2015-Jun-30 07:33N 37°43' W 122°20'0 0.1
2015-Jun-30 06:33N 37°43' W 122°20'0 0.0
2015-Jun-30 05:33N 37°43' W 122°20'0 0.0
2015-Jun-30 04:33N 37°43' W 122°20'0 0.0
2015-Jun-30 03:33N 37°42' W 122°20'0 0.0
2015-Jun-30 02:33N 37°43' W 122°20'0 0.0
2015-Jun-30 01:33N 37°43' W 122°20'0 0.1
2015-Jun-30 00:33N 37°43' W 122°20'0 0.0
2015-Jun-29 23:33N 37°43' W 122°20'5 4.9
2015-Jun-29 22:33N 37°47' W 122°22'1413.6
2015-Jun-29 21:33N 37°45' W 122°39'8 8.1
2015-Jun-29 20:33N 37°37' W 122°40'7 7.4
2015-Jun-29 19:33N 37°30' W 122°40'9 8.6
2015-Jun-29 18:33N 37°21' W 122°40'8 8.2
2015-Jun-29 17:33N 37°13' W 122°37'9 9.0
2015-Jun-29 16:33N 37°05' W 122°32'7 7.4
2015-Jun-29 15:33N 36°59' W 122°28'9 8.7
2015-Jun-29 14:33N 36°51' W 122°23'8 8.4
2015-Jun-29 13:33N 36°43' W 122°19'8 8.3
2015-Jun-29 12:33N 36°36' W 122°13'9 8.6
2015-Jun-29 11:33N 36°29' W 122°09'9 8.6
2015-Jun-29 10:33N 36°21' W 122°04'9 8.9
2015-Jun-29 09:33N 36°13' W 121°59'9 8.6
2015-Jun-29 08:33N 36°05' W 121°54'8 8.1
2015-Jun-29 07:33N 35°58' W 121°49'8 8.0
2015-Jun-29 06:33N 35°51' W 121°44'8 7.9
2015-Jun-29 05:33N 35°44' W 121°40'8 8.2
2015-Jun-29 04:33N 35°37' W 121°35'9 8.6
2015-Jun-29 03:33N 35°29' W 121°30'9 8.8
2015-Jun-29 02:33N 35°21' W 121°26'9 8.9
2015-Jun-29 01:33N 35°13' W 121°21'8 8.5
2015-Jun-29 00:33N 35°06' W 121°17'9 8.9
2015-Jun-28 23:33N 34°58' W 121°12'9 9.0
2015-Jun-28 22:33N 34°50' W 121°06'9 8.8
2015-Jun-28 21:33N 34°42' W 121°02'9 8.9
2015-Jun-28 20:31N 34°34' W 120°56'18 8.6
2015-Jun-28 18:24N 34°23' W 120°38'73 9.0
2015-Jun-28 10:16N 34°03' W 119°13'6 8.8
2015-Jun-28 09:33N 34°00' W 119°07'9 9.1
2015-Jun-28 08:33N 33°56' W 118°57'9 9.4
2015-Jun-28 07:33N 33°51' W 118°48'9 9.2
2015-Jun-28 06:33N 33°46' W 118°38'9 9.0
2015-Jun-28 05:31N 33°42' W 118°28'9 9.3
2015-Jun-28 04:33N 33°38' W 118°18'8 8.0
2015-Jun-28 03:33N 33°43' W 118°11'4 3.5
2015-Jun-28 02:33N 33°46' W 118°14'0 0.0
2015-Jun-28 01:33N 33°46' W 118°14'0 0.0
2015-Jun-28 00:33N 33°46' W 118°14'0 0.0
2015-Jun-27 23:33N 33°46' W 118°14'0 0.0
2015-Jun-27 22:33N 33°46' W 118°14'0 0.0
2015-Jun-27 21:33N 33°46' W 118°14'0 0.0
2015-Jun-27 20:33N 33°46' W 118°14'0 0.0
2015-Jun-27 19:33N 33°46' W 118°14'0 0.0
2015-Jun-27 18:33N 33°46' W 118°14'0 0.0
2015-Jun-27 17:33N 33°46' W 118°14'0 0.0
2015-Jun-27 16:30N 33°46' W 118°14'0 0.0
2015-Jun-27 15:33N 33°46' W 118°14'0 0.0
2015-Jun-27 14:33N 33°46' W 118°14'0 0.0
2015-Jun-27 13:33N 33°46' W 118°14'0 0.0
2015-Jun-27 12:33N 33°46' W 118°14'0 0.0
2015-Jun-27 11:33N 33°46' W 118°14'0 0.0
2015-Jun-27 10:33N 33°46' W 118°14'0 0.0
2015-Jun-27 09:33N 33°46' W 118°14'0 0.0
2015-Jun-27 08:33N 33°46' W 118°14'0 0.0
2015-Jun-27 07:33N 33°46' W 118°14'0 0.0
2015-Jun-27 06:33N 33°46' W 118°14'0 0.0
2015-Jun-27 05:33N 33°46' W 118°14'0 0.0
2015-Jun-27 04:33N 33°46' W 118°14'0 0.0
2015-Jun-27 03:33N 33°46' W 118°14'0 0.0
2015-Jun-27 02:33N 33°46' W 118°14'0 0.0
2015-Jun-27 01:33N 33°46' W 118°14'0 0.0
2015-Jun-27 00:33N 33°46' W 118°14'0 0.0
2015-Jun-26 23:33N 33°46' W 118°14'1 0.9
2015-Jun-26 22:33N 33°46' W 118°13'6 6.2
2015-Jun-26 21:33N 33°39' W 118°12'7 6.6
2015-Jun-26 20:33N 33°36' W 118°19'7 6.9
2015-Jun-26 19:33N 33°38' W 118°27'7 6.9
2015-Jun-26 18:33N 33°42' W 118°34'7 7.0
2015-Jun-26 17:33N 33°45' W 118°41'7 7.0
2015-Jun-26 16:33N 33°49' W 118°48'7 7.1
2015-Jun-26 15:33N 33°53' W 118°55'7 7.1
2015-Jun-26 14:33N 33°56' W 119°03'7 7.1
2015-Jun-26 13:33N 33°60' W 119°10'6 6.2
2015-Jun-26 12:33N 34°04' W 119°16'6 5.0
2015-Jun-26 11:25N 34°09' W 119°12'0 0.0
2015-Jun-26 09:31N 34°09' W 119°12'0 0.0
2015-Jun-26 07:19N 34°09' W 119°12'0 0.0
2015-Jun-26 06:19N 34°09' W 119°12'0 0.0
2015-Jun-26 04:31N 34°09' W 119°12'0 0.0
2015-Jun-26 03:31N 34°09' W 119°12'0 0.0
2015-Jun-26 02:28N 34°09' W 119°12'0 0.0
2015-Jun-26 01:31N 34°09' W 119°12'0 0.0
2015-Jun-26 00:31N 34°09' W 119°12'0 0.0
2015-Jun-25 23:31N 34°09' W 119°12'0 0.0
2015-Jun-25 22:31N 34°09' W 119°12'0 0.0
2015-Jun-25 21:25N 34°09' W 119°12'0 0.0
2015-Jun-25 03:28N 34°09' W 119°12'  

Dump ship's entire track history